Time;durP1;ratioP1;P1;durP2;ratioP2;P2;SDS_P1;SDS_P2;PMS_P1;PMS_P2;Temp;Humidity;BMP_temperature;BMP_pressure;BME280_temperature;BME280_humidity;BME280_pressure;Samples;Min_cycle;Max_cycle;Signal;HPM_P1;HPM_P2
2022/05/29 00:01:12;;;;;;;15.57;4.68;;;;;;;7.85;100.00;97770.25;4946920;28;20459;-57
2022/05/29 00:03:38;;;;;;;17.25;4.50;;;;;;;8.54;100.00;97769.59;4948695;28;20173;-57
2022/05/29 00:06:05;;;;;;;15.15;4.57;;;;;;;7.79;100.00;97765.25;4966162;28;20035;-57
2022/05/29 00:08:32;;;;;;;16.90;4.75;;;;;;;7.76;100.00;97769.72;4950337;28;20057;-58
2022/05/29 00:10:59;;;;;;;14.50;3.88;;;;;;;8.75;100.00;97772.31;4951072;28;20531;-56
2022/05/29 00:13:24;;;;;;;16.95;4.63;;;;;;;7.73;100.00;97760.28;4951771;28;20043;-57
2022/05/29 00:15:50;;;;;;;16.67;4.00;;;;;;;9.03;100.00;97761.75;4950883;28;20053;-58
2022/05/29 00:18:16;;;;;;;13.52;4.68;;;;;;;7.73;100.00;97758.53;4951537;28;20023;-58
2022/05/29 00:20:47;;;;;;;12.60;3.97;;;;;;;8.24;100.00;97761.16;4949504;28;20039;-57
2022/05/29 00:23:13;;;;;;;14.10;4.50;;;;;;;7.78;100.00;97753.19;4951855;28;20027;-57
2022/05/29 00:25:38;;;;;;;10.80;3.70;;;;;;;7.71;100.00;97756.88;4950573;28;20047;-58
2022/05/29 00:28:04;;;;;;;18.48;4.75;;;;;;;7.27;100.00;97751.41;4951726;28;20034;-58
2022/05/29 00:30:29;;;;;;;18.30;5.00;;;;;;;7.02;100.00;97757.34;4949152;28;20043;-56
2022/05/29 00:32:55;;;;;;;14.50;4.35;;;;;;;6.91;100.00;97768.06;4948881;28;20030;-57
2022/05/29 00:35:20;;;;;;;12.30;4.00;;;;;;;7.03;100.00;97760.78;4953404;28;20031;-56
2022/05/29 00:37:47;;;;;;;16.65;4.35;;;;;;;7.22;100.00;97750.69;4951982;28;20027;-57
2022/05/29 00:40:18;;;;;;;14.95;4.10;;;;;;;7.28;100.00;97753.09;4951402;28;20031;-57
2022/05/29 00:42:43;;;;;;;15.60;4.30;;;;;;;7.00;100.00;97753.94;4950855;28;20034;-58
2022/05/29 00:45:19;;;;;;;17.20;4.40;;;;;;;7.23;100.00;97755.00;4950001;28;20092;-59
2022/05/29 00:47:45;;;;;;;12.90;4.07;;;;;;;7.03;100.00;97743.47;4951388;28;20023;-57
2022/05/29 00:50:11;;;;;;;11.50;4.10;;;;;;;6.47;100.00;97746.00;4948883;28;20666;-59
2022/05/29 00:52:38;;;;;;;17.77;4.88;;;;;;;6.72;100.00;97749.59;4949147;28;20053;-57
2022/05/29 00:55:10;;;;;;;16.10;4.28;;;;;;;6.93;100.00;97734.31;4950741;28;20078;-57
2022/05/29 00:57:44;;;;;;;15.80;4.05;;;;;;;7.28;100.00;97743.56;4951749;28;20031;-57
2022/05/29 01:00:16;;;;;;;19.50;4.55;;;;;;;6.96;100.00;97736.78;4948438;28;20039;-57
2022/05/29 01:02:43;;;;;;;16.88;4.40;;;;;;;6.52;100.00;97737.19;4951079;28;20031;-58
2022/05/29 01:05:11;;;;;;;12.00;3.90;;;;;;;6.69;100.00;97731.53;4950189;28;20391;-58
2022/05/29 01:07:36;;;;;;;15.35;4.30;;;;;;;6.89;100.00;97735.25;4950299;28;20056;-57
2022/05/29 01:10:05;;;;;;;22.20;4.78;;;;;;;6.89;100.00;97730.94;4948300;28;20023;-57
2022/05/29 01:13:04;;;;;;;13.48;3.80;;;;;;;7.09;100.00;97734.66;4951420;28;20145;-56
2022/05/29 01:16:00;;;;;;;15.82;4.22;;;;;;;7.18;100.00;97721.41;4952440;28;20083;-58
2022/05/29 01:18:37;;;;;;;18.05;4.47;;;;;;;6.94;100.00;97721.25;4951250;28;20035;-57
2022/05/29 01:21:34;;;;;;;16.88;4.57;;;;;;;6.80;100.00;97723.47;4949873;28;20506;-57
2022/05/29 01:24:11;;;;;;;12.43;3.78;;;;;;;6.71;100.00;97721.97;4950240;28;20023;-59
2022/05/29 01:26:39;;;;;;;15.88;4.15;;;;;;;7.06;100.00;97721.81;4954421;28;20066;-57
2022/05/29 01:29:07;;;;;;;14.55;3.80;;;;;;;6.91;100.00;97720.50;4954331;28;20031;-56
2022/05/29 01:31:52;;;;;;;17.50;4.50;;;;;;;6.62;100.00;97716.22;4951257;28;20247;-59
2022/05/29 01:34:41;;;;;;;10.27;3.72;;;;;;;6.79;100.00;97707.94;4952677;28;20108;-58
2022/05/29 01:37:21;;;;;;;13.35;3.67;;;;;;;7.04;100.00;97719.25;4953525;28;20067;-56
2022/05/29 01:39:55;;;;;;;16.70;4.05;;;;;;;7.83;100.00;97722.72;4954184;28;20386;-58
2022/05/29 01:42:52;;;;;;;14.88;4.07;;;;;;;6.58;100.00;97712.88;4954629;28;20074;-58
2022/05/29 01:45:30;;;;;;;11.95;3.60;;;;;;;6.79;100.00;97708.78;4953918;28;20101;-58
2022/05/29 01:48:06;;;;;;;14.80;4.03;;;;;;;6.84;100.00;97711.25;4953545;28;20034;-57
2022/05/29 01:50:41;;;;;;;14.63;4.13;;;;;;;6.39;100.00;97715.13;4953109;28;20043;-56
2022/05/29 01:53:41;;;;;;;17.67;4.70;;;;;;;6.29;100.00;97709.38;4952381;28;20082;-57
2022/05/29 01:56:29;;;;;;;17.73;4.63;;;;;;;6.37;100.00;97710.00;4953860;28;20133;-56
2022/05/29 01:58:58;;;;;;;11.85;3.53;;;;;;;6.55;100.00;97707.78;4951627;28;20023;-57
2022/05/29 02:01:35;;;;;;;14.77;4.10;;;;;;;6.40;100.00;97697.88;4953344;28;20567;-57
2022/05/29 02:04:06;;;;;;;16.15;4.03;;;;;;;6.28;100.00;97689.53;4954156;28;20114;-57
2022/05/29 02:09:22;;;;;;;16.00;4.25;;;;;;;6.19;100.00;97682.03;4954573;28;20045;-57
2022/05/29 02:11:52;;;;;;;17.80;4.50;;;;;;;6.11;100.00;97669.31;4952958;28;20118;-57
2022/05/29 02:14:24;;;;;;;14.57;3.70;;;;;;;6.34;100.00;97676.44;4952869;28;20102;-58
2022/05/29 02:16:54;;;;;;;18.70;4.40;;;;;;;6.07;100.00;97672.03;4955052;28;20054;-56
2022/05/29 02:19:32;;;;;;;17.40;3.80;;;;;;;6.26;100.00;97665.44;4954483;28;20291;-56
2022/05/29 02:22:07;;;;;;;18.58;4.35;;;;;;;6.27;100.00;97658.53;4965715;28;20050;-56
2022/05/29 02:24:37;;;;;;;15.85;3.83;;;;;;;6.62;100.00;97665.25;4953205;28;20046;-57
2022/05/29 02:27:09;;;;;;;19.50;4.47;;;;;;;6.41;100.00;97656.34;4952892;28;20043;-57
2022/05/29 02:29:35;;;;;;;18.42;4.38;;;;;;;6.33;100.00;97664.34;4952148;28;20429;-57
2022/05/29 02:32:17;;;;;;;16.83;3.83;;;;;;;7.21;100.00;97673.78;4951777;28;20041;-56
2022/05/29 02:35:00;;;;;;;16.15;3.97;;;;;;;6.69;100.00;97658.09;4952299;28;20038;-57
2022/05/29 02:37:35;;;;;;;16.05;3.95;;;;;;;6.50;100.00;97655.25;4950591;28;20034;-56
2022/05/29 02:40:25;;;;;;;23.52;4.93;;;;;;;6.89;100.00;97660.09;4953243;28;20035;-56
2022/05/29 02:43:15;;;;;;;13.48;3.70;;;;;;;6.54;100.00;97654.25;4952308;28;20052;-57
2022/05/29 02:45:50;;;;;;;14.32;3.78;;;;;;;6.35;100.00;97652.19;4952829;28;20109;-57
2022/05/29 02:48:27;;;;;;;13.30;3.30;;;;;;;8.58;100.00;97658.56;4953150;28;20027;-57
2022/05/29 02:51:16;;;;;;;11.10;3.15;;;;;;;7.33;100.00;97648.28;4952621;28;20137;-57
2022/05/29 02:53:44;;;;;;;13.95;3.30;;;;;;;6.76;100.00;97657.03;4953770;28;20702;-56
2022/05/29 02:56:10;;;;;;;14.50;3.33;;;;;;;8.43;100.00;97652.19;4961171;28;20070;-58
2022/05/29 02:58:38;;;;;;;13.60;3.50;;;;;;;8.84;100.00;97645.41;4953064;28;20070;-57
2022/05/29 03:01:22;;;;;;;9.82;3.10;;;;;;;6.55;100.00;97632.63;4950445;28;20035;-57
2022/05/29 03:04:20;;;;;;;16.42;4.00;;;;;;;5.94;100.00;97635.25;4953105;28;20118;-57
2022/05/29 03:06:53;;;;;;;13.88;3.58;;;;;;;6.28;100.00;97634.31;4952172;28;20520;-58
2022/05/29 03:09:18;;;;;;;;;;;;;;;6.27;100.00;97623.09;4953661;28;20037;-56
2022/05/29 03:11:45;;;;;;;13.93;3.63;;;;;;;5.82;100.00;97626.09;4964869;28;19918;-58
2022/05/29 03:14:19;;;;;;;16.92;4.20;;;;;;;5.68;100.00;97623.03;4953098;28;20027;-58
2022/05/29 03:16:59;;;;;;;14.15;3.80;;;;;;;5.89;100.00;97622.44;4951477;28;20043;-59
2022/05/29 03:20:09;;;;;;;15.50;3.90;;;;;;;6.28;100.00;97621.34;4952655;28;20027;-57
2022/05/29 03:23:01;;;;;;;16.70;4.13;;;;;;;6.25;100.00;97619.72;4950056;28;20035;-57
2022/05/29 03:25:41;;;;;;;13.77;3.63;;;;;;;6.49;100.00;97622.47;4944087;28;20089;-58
2022/05/29 03:28:22;;;;;;;11.50;3.10;;;;;;;8.90;100.00;97631.31;4953290;28;20575;-57
2022/05/29 03:30:49;;;;;;;12.07;3.05;;;;;;;8.10;100.00;97623.94;4950261;28;20416;-57
2022/05/29 03:33:15;;;;;;;11.43;2.90;;;;;;;9.60;100.00;97618.88;4952789;28;20030;-58
2022/05/29 03:35:43;;;;;;;11.77;3.17;;;;;;;7.59;100.00;97617.13;4952394;28;20050;-56
2022/05/29 03:38:08;;;;;;;14.73;3.65;;;;;;;7.17;100.00;97609.91;4951882;28;20034;-58
2022/05/29 03:40:34;;;;;;;12.93;3.45;;;;;;;8.42;100.00;97629.72;4951171;28;20039;-57
2022/05/29 03:43:00;;;;;;;11.77;3.28;;;;;;;8.44;100.00;97622.72;4950524;28;20035;-56
2022/05/29 03:45:26;;;;;;;12.02;3.30;;;;;;;6.35;100.00;97610.75;4950917;28;20031;-58
2022/05/29 03:47:52;;;;;;;15.77;3.25;;;;;;;8.14;100.00;97619.47;4950230;28;20027;-57
2022/05/29 03:50:20;;;;;;;10.55;3.30;;;;;;;8.48;100.00;97600.91;4950517;28;20023;-57
2022/05/29 03:52:46;;;;;;;12.05;3.28;;;;;;;7.41;100.00;97603.06;4951407;28;20085;-57
2022/05/29 03:55:14;;;;;;;14.43;3.45;;;;;;;7.97;100.00;97609.72;4951024;28;20023;-57
2022/05/29 03:57:40;;;;;;;10.13;2.63;;;;;;;7.64;100.00;97604.84;4951895;28;20108;-56
2022/05/29 04:00:08;;;;;;;20.85;4.15;;;;;;;9.50;100.00;97604.53;4951783;28;20499;-58
2022/05/29 04:02:34;;;;;;;11.73;3.13;;;;;;;8.43;100.00;97600.22;4951446;28;20066;-57
2022/05/29 04:05:00;;;;;;;13.77;3.65;;;;;;;8.05;100.00;97592.09;4953230;28;20467;-57
2022/05/29 04:12:58;;;;;;;11.07;3.10;;;;;;;8.21;100.00;97595.81;4952940;28;20050;-57
2022/05/29 04:15:24;;;;;;;13.68;3.40;;;;;;;7.94;100.00;97591.63;4950432;28;20039;-56
2022/05/29 04:17:49;;;;;;;10.57;3.30;;;;;;;7.62;100.00;97586.72;4951974;28;20104;-57
2022/05/29 04:20:15;;;;;;;12.57;3.20;;;;;;;9.83;100.00;97579.66;4950394;28;20134;-58
2022/05/29 04:22:41;;;;;;;10.60;3.17;;;;;;;9.09;100.00;97573.31;4951739;28;20031;-58
2022/05/29 04:25:07;;;;;;;11.35;3.50;;;;;;;7.79;100.00;97582.66;4950140;28;20061;-56
2022/05/29 04:27:32;;;;;;;12.57;3.58;;;;;;;7.77;100.00;97580.13;4951519;28;20030;-57
2022/05/29 04:29:57;;;;;;;15.65;3.88;;;;;;;8.72;100.00;97575.69;4950854;28;20039;-58
2022/05/29 04:35:07;;;;;;;9.52;3.20;;;;;;;8.40;100.00;97571.72;4950895;28;20139;-57
2022/05/29 04:37:32;;;;;;;11.68;3.28;;;;;;;8.54;100.00;97566.00;4948890;28;20031;-58
2022/05/29 04:39:58;;;;;;;20.63;4.55;;;;;;;8.26;100.00;97564.47;4950820;28;20015;-59
2022/05/29 04:42:23;;;;;;;16.17;3.67;;;;;;;7.91;100.00;97558.84;4951034;28;20070;-57
2022/05/29 04:44:49;;;;;;;13.57;3.50;;;;;;;8.86;100.00;97557.75;4949534;28;20090;-57
2022/05/29 04:47:14;;;;;;;12.27;3.35;;;;;;;8.95;100.00;97551.34;4950398;28;20073;-57
2022/05/29 04:49:39;;;;;;;12.25;3.15;;;;;;;9.64;100.00;97556.16;4951366;28;20027;-57
2022/05/29 04:52:06;;;;;;;10.68;3.28;;;;;;;9.48;100.00;97551.72;4952460;28;20494;-57
2022/05/29 04:54:40;;;;;;;12.07;3.28;;;;;;;12.47;100.00;97541.25;4949124;28;20055;-57
2022/05/29 04:57:06;;;;;;;13.40;3.65;;;;;;;12.60;100.00;97540.56;4949518;28;20054;-57
2022/05/29 04:59:32;;;;;;;11.02;2.70;;;;;;;14.90;100.00;97541.44;4952608;28;20031;-57
2022/05/29 05:01:58;;;;;;;7.20;2.50;;;;;;;15.30;100.00;97535.31;4952558;28;20935;-57
2022/05/29 05:04:24;;;;;;;11.20;2.80;;;;;;;15.77;99.06;97534.72;4956953;28;20034;-57
2022/05/29 05:06:49;;;;;;;10.55;3.03;;;;;;;17.76;82.59;97536.00;4953144;28;20063;-56
2022/05/29 05:09:15;;;;;;;7.57;2.53;;;;;;;20.23;64.54;97535.09;4955257;28;20036;-59
2022/05/29 05:11:40;;;;;;;7.20;2.45;;;;;;;19.56;64.01;97533.81;4953275;28;20420;-60
2022/05/29 05:14:05;;;;;;;7.72;2.55;;;;;;;17.50;69.86;97530.09;4955488;28;20057;-57
2022/05/29 05:16:31;;;;;;;7.97;2.75;;;;;;;13.89;91.65;97538.19;4952636;28;20049;-59
2022/05/29 05:18:56;;;;;;;9.35;2.70;;;;;;;13.15;100.00;97547.84;4953648;28;20023;-57
2022/05/29 05:21:21;;;;;;;8.43;3.00;;;;;;;13.62;100.00;97541.59;4953317;28;20069;-59
2022/05/29 05:23:47;;;;;;;9.05;2.78;;;;;;;13.21;100.00;97542.25;4954067;28;20031;-58
2022/05/29 05:26:15;;;;;;;9.98;3.03;;;;;;;13.18;100.00;97541.56;4952404;28;20090;-58
2022/05/29 05:28:41;;;;;;;10.43;3.28;;;;;;;14.44;100.00;97539.13;4954242;28;20697;-59
2022/05/29 05:31:06;;;;;;;7.15;2.55;;;;;;;15.47;100.00;97540.25;4953248;28;20036;-58
2022/05/29 05:33:32;;;;;;;6.65;2.58;;;;;;;17.80;82.02;97539.22;4954387;28;20272;-58
2022/05/29 05:35:57;;;;;;;7.93;2.83;;;;;;;16.68;75.74;97541.41;4953918;28;20049;-58
2022/05/29 05:38:23;;;;;;;6.93;2.55;;;;;;;17.86;80.16;97542.25;4955235;28;20050;-57
2022/05/29 05:40:48;;;;;;;9.52;2.67;;;;;;;19.05;69.41;97541.53;4952739;28;20047;-57
2022/05/29 05:43:13;;;;;;;7.65;2.70;;;;;;;20.01;65.61;97549.38;4952193;28;20041;-58
2022/05/29 05:45:41;;;;;;;6.38;2.58;;;;;;;20.23;57.55;97543.88;4953865;28;20872;-58
2022/05/29 05:48:07;;;;;;;7.82;2.60;;;;;;;20.64;59.70;97545.66;4952832;28;20030;-58
2022/05/29 05:50:32;;;;;;;5.60;2.20;;;;;;;21.62;52.96;97542.03;4952426;28;20039;-60
2022/05/29 05:52:58;;;;;;;7.97;2.78;;;;;;;23.00;51.88;97537.69;4953733;28;20050;-59
2022/05/29 05:55:23;;;;;;;9.38;2.90;;;;;;;23.48;49.62;97547.09;4953985;28;20034;-59
2022/05/29 05:57:48;;;;;;;6.15;2.53;;;;;;;25.68;44.05;97537.25;4968657;28;20042;-59
2022/05/29 06:00:18;;;;;;;5.65;2.45;;;;;;;24.61;42.90;97541.69;4951925;28;20027;-57
2022/05/29 06:02:43;;;;;;;5.45;2.40;;;;;;;24.89;43.18;97528.09;4954188;28;20039;-58
2022/05/29 06:05:11;;;;;;;4.40;2.30;;;;;;;25.99;40.07;97525.00;4953348;28;20034;-59
2022/05/29 06:07:36;;;;;;;7.70;2.72;;;;;;;21.46;46.38;97532.00;4951854;28;20582;-58
2022/05/29 06:10:01;;;;;;;7.40;2.95;;;;;;;22.36;43.24;97527.06;4951136;28;20027;-60
2022/05/29 06:12:27;;;;;;;5.50;2.55;;;;;;;24.52;40.36;97529.28;4952247;28;20054;-59
2022/05/29 06:14:54;;;;;;;6.90;2.25;;;;;;;24.56;41.46;97525.34;4954032;28;20122;-59
2022/05/29 06:17:20;;;;;;;5.72;2.50;;;;;;;25.42;39.03;97531.28;4952312;28;20089;-59
2022/05/29 06:19:45;;;;;;;4.75;2.28;;;;;;;21.74;42.58;97524.97;4950522;28;20400;-59
2022/05/29 06:22:10;;;;;;;6.10;2.60;;;;;;;22.25;43.25;97533.38;4951697;28;20046;-58
2022/05/29 06:24:36;;;;;;;7.05;2.63;;;;;;;22.76;42.54;97528.50;4953610;28;20777;-60
2022/05/29 06:27:02;;;;;;;6.65;2.83;;;;;;;20.55;46.67;97531.41;4951694;28;20415;-58
2022/05/29 06:29:27;;;;;;;9.45;2.92;;;;;;;22.85;44.19;97530.25;4953796;28;20031;-58
2022/05/29 06:31:53;;;;;;;6.90;2.63;;;;;;;22.79;44.54;97530.88;4951875;28;20039;-57
2022/05/29 06:34:20;;;;;;;4.53;2.20;;;;;;;21.69;47.66;97527.22;4952512;28;20035;-59
2022/05/29 06:36:46;;;;;;;6.40;2.40;;;;;;;19.69;51.68;97534.44;4951488;28;20046;-57
2022/05/29 06:39:11;;;;;;;8.18;2.83;;;;;;;18.49;53.29;97528.50;4953033;28;20027;-58
2022/05/29 06:41:39;;;;;;;7.78;3.08;;;;;;;19.61;51.90;97529.81;4952294;28;20130;-59
2022/05/29 06:44:05;;;;;;;6.20;2.50;;;;;;;16.23;56.41;97530.63;4953305;28;20027;-59
2022/05/29 06:46:30;;;;;;;7.07;2.60;;;;;;;17.19;56.90;97532.41;4954284;28;20588;-57
2022/05/29 06:48:55;;;;;;;8.20;2.60;;;;;;;16.71;59.72;97528.03;4952097;28;20031;-58
2022/05/29 06:51:22;;;;;;;9.40;2.53;;;;;;;18.41;53.54;97530.91;4953374;28;20049;-58
2022/05/29 06:53:49;;;;;;;9.15;2.67;;;;;;;17.62;56.61;97525.66;4952137;28;20027;-58
2022/05/29 06:56:15;;;;;;;7.38;2.58;;;;;;;17.04;66.07;97536.19;4953217;28;20516;-59
2022/05/29 06:58:40;;;;;;;10.27;3.05;;;;;;;16.87;64.49;97537.44;4951322;28;20039;-58
2022/05/29 07:09:21;;;;;;;11.10;3.00;;;;;;;16.99;64.64;97540.97;4948622;28;20097;-58
2022/05/29 07:11:50;;;;;;;12.32;2.88;;;;;;;16.22;64.40;97546.53;4950760;28;20031;-59
2022/05/29 07:14:16;;;;;;;14.43;3.92;;;;;;;16.19;63.63;97547.56;4949873;28;20031;-58
2022/05/29 07:16:44;;;;;;;11.07;3.40;;;;;;;16.35;64.26;97553.41;4947366;28;20126;-57
2022/05/29 07:19:10;;;;;;;8.55;2.80;;;;;;;16.71;63.05;97546.47;4950986;28;20770;-58
2022/05/29 07:21:41;;;;;;;11.30;2.83;;;;;;;16.57;62.23;97542.19;4954087;28;20046;-57
2022/05/29 07:24:08;;;;;;;9.43;2.90;;;;;;;15.88;67.72;97544.50;4955207;28;20022;-57
2022/05/29 07:26:33;;;;;;;9.85;2.67;;;;;;;15.25;73.14;97540.03;4951123;28;20045;-59
2022/05/29 07:28:59;;;;;;;11.57;2.72;;;;;;;16.39;69.45;97543.50;4946080;28;20035;-57
2022/05/29 07:31:25;;;;;;;11.45;2.70;;;;;;;16.98;70.06;97534.03;4944272;28;20046;-59
2022/05/29 07:33:51;;;;;;;8.63;2.47;;;;;;;16.65;69.43;97538.16;4963192;28;20035;-57
2022/05/29 07:36:18;;;;;;;12.20;2.90;;;;;;;15.40;71.30;97538.97;4949849;28;20042;-58
2022/05/29 07:38:45;;;;;;;11.55;3.13;;;;;;;16.00;71.82;97538.34;4950518;28;20023;-57
2022/05/29 07:43:55;;;;;;;9.43;2.80;;;;;;;16.77;68.71;97527.56;4949640;28;20038;-57
2022/05/29 07:46:21;;;;;;;10.63;3.08;;;;;;;16.53;68.33;97529.38;4948778;28;20047;-58
2022/05/29 07:48:47;;;;;;;10.50;2.70;;;;;;;16.80;70.48;97530.91;4948843;28;20019;-58
2022/05/29 07:51:12;;;;;;;8.90;2.67;;;;;;;16.84;68.71;97530.63;4949119;28;20049;-57
2022/05/29 07:53:38;;;;;;;10.50;2.78;;;;;;;17.59;64.43;97528.53;4948777;28;20062;-57
2022/05/29 07:56:05;;;;;;;12.13;2.97;;;;;;;16.51;66.89;97524.22;4945873;28;20679;-58
2022/05/29 07:58:30;;;;;;;16.77;3.80;;;;;;;17.47;64.75;97525.88;4948081;28;20023;-58
2022/05/29 08:00:55;;;;;;;12.85;3.10;;;;;;;17.42;61.65;97530.66;4945793;28;20124;-58
2022/05/29 08:03:22;;;;;;;10.57;2.95;;;;;;;18.48;56.72;97526.81;4947549;28;20027;-58
2022/05/29 08:05:48;;;;;;;10.50;3.10;;;;;;;18.62;56.47;97529.19;4949047;28;20108;-58
2022/05/29 08:08:14;;;;;;;10.00;3.05;;;;;;;19.71;54.40;97524.56;4949240;28;20031;-58
2022/05/29 08:10:41;;;;;;;12.18;3.30;;;;;;;18.69;55.68;97525.09;4945911;28;20046;-58
2022/05/29 08:13:07;;;;;;;8.40;2.65;;;;;;;21.05;49.27;97522.56;4949069;28;20020;-58
2022/05/29 08:15:33;;;;;;;10.15;2.78;;;;;;;21.54;48.03;97512.69;4946299;28;20050;-59
2022/05/29 08:17:58;;;;;;;7.28;2.50;;;;;;;22.84;44.36;97507.28;4948502;28;20048;-58
2022/05/29 08:20:24;;;;;;;7.72;2.47;;;;;;;21.81;44.83;97519.06;4947708;28;20358;-57
2022/05/29 08:22:49;;;;;;;8.68;2.40;;;;;;;22.14;43.52;97513.16;4948713;28;20150;-59
2022/05/29 08:30:51;;;;;;;10.23;2.95;;;;;;;19.91;50.71;97512.28;4945765;28;20101;-58
2022/05/29 08:33:20;;;;;;;10.75;3.05;;;;;;;20.85;47.49;97509.28;4947255;28;20130;-59
2022/05/29 08:35:49;;;;;;;9.45;2.85;;;;;;;20.50;46.67;97507.97;4948708;28;20122;-59
2022/05/29 08:38:16;;;;;;;9.63;2.55;;;;;;;21.15;45.58;97502.16;4949257;28;20084;-60
2022/05/29 08:40:45;;;;;;;7.90;2.30;;;;;;;20.75;47.06;97505.78;4947994;28;20035;-60
2022/05/29 08:43:17;;;;;;;8.77;2.28;;;;;;;22.53;44.54;97493.53;4946263;28;20736;-59
2022/05/29 08:45:46;;;;;;;8.48;2.70;;;;;;;23.52;43.18;97500.53;4948438;28;20039;-59
2022/05/29 08:48:11;;;;;;;8.70;2.95;;;;;;;23.97;41.90;97494.16;4946549;28;20496;-59
2022/05/29 08:50:47;;;;;;;9.05;2.92;;;;;;;23.76;40.34;97491.00;4960862;28;20098;-60
2022/05/29 08:53:40;;;;;;;8.68;2.80;;;;;;;24.25;40.57;97485.91;4948565;28;20023;-59
2022/05/29 08:56:14;;;;;;;8.88;2.60;;;;;;;26.51;36.82;97485.16;4943931;28;20030;-60
2022/05/29 08:59:01;;;;;;;9.10;2.88;;;;;;;26.02;35.59;97479.25;4946627;28;20279;-61
2022/05/29 09:01:41;;;;;;;9.75;2.60;;;;;;;25.64;36.56;97476.31;4934416;28;20035;-59
2022/05/29 09:04:17;;;;;;;7.05;2.50;;;;;;;27.72;34.07;97477.34;4947720;28;20030;-61
2022/05/29 09:06:53;;;;;;;5.80;2.15;;;;;;;26.92;33.79;97478.72;4946293;28;20034;-60
2022/05/29 09:09:31;;;;;;;6.80;2.50;;;;;;;27.79;33.02;97478.28;4947778;28;20030;-61
2022/05/29 09:12:04;;;;;;;7.20;2.30;;;;;;;28.14;31.81;97473.19;4947817;28;20671;-60
2022/05/29 09:14:41;;;;;;;10.45;2.70;;;;;;;26.23;34.25;97471.47;4945950;28;20031;-61
2022/05/29 09:17:35;;;;;;;6.35;2.70;;;;;;;28.87;30.35;97467.78;4947537;28;20034;-60
2022/05/29 09:20:07;;;;;;;6.03;2.25;;;;;;;25.33;34.43;97469.06;4942202;28;20047;-61
2022/05/29 09:22:38;;;;;;;6.95;2.30;;;;;;;24.33;35.75;97472.59;4944824;28;20051;-62
2022/05/29 09:25:28;;;;;;;8.90;2.30;;;;;;;24.17;37.15;97475.22;4949028;28;20100;-61
2022/05/29 09:27:54;;;;;;;6.35;2.20;;;;;;;22.51;41.88;97469.75;4947913;28;20043;-59
2022/05/29 09:30:19;;;;;;;11.48;3.03;;;;;;;22.03;44.36;97460.25;4944746;28;20027;-59
2022/05/29 09:33:12;;;;;;;8.45;2.55;;;;;;;20.32;48.40;97468.06;4946987;28;20027;-59
2022/05/29 09:35:49;;;;;;;;;;;;;;;19.52;63.28;97475.06;4948570;28;20512;-57
2022/05/29 09:38:30;;;;;;;18.33;3.72;;;;;;;17.80;100.00;97481.19;4947777;28;20018;-59
2022/05/29 09:41:04;;;;;;;11.82;3.00;;;;;;;16.20;100.00;97486.13;4947216;28;20038;-59
2022/05/29 09:43:30;;;;;;;13.18;3.45;;;;;;;17.90;100.00;97490.06;4944485;28;20442;-60
2022/05/29 09:46:15;;;;;;;13.18;3.13;;;;;;;18.49;100.00;97491.53;4947800;28;20039;-59
2022/05/29 09:51:28;;;;;;;14.32;3.05;;;;;;;16.52;100.00;97512.75;4947231;28;20054;-61
2022/05/29 09:53:57;;;;;;;11.57;3.10;;;;;;;16.41;100.00;97509.19;4945216;28;20117;-60
2022/05/29 09:56:29;;;;;;;20.95;3.85;;;;;;;15.83;100.00;97515.03;4947093;28;20036;-60
2022/05/29 09:59:03;;;;;;;20.02;4.78;;;;;;;13.73;100.00;97526.97;4950032;28;20022;-60
2022/05/29 10:01:42;;;;;;;13.45;3.70;;;;;;;13.75;100.00;97530.34;4948807;28;20047;-60
2022/05/29 10:04:21;;;;;;;16.65;3.90;;;;;;;14.08;100.00;97512.53;4949305;28;20089;-59
2022/05/29 10:06:53;;;;;;;17.77;3.45;;;;;;;13.96;100.00;97492.31;4952005;28;20552;-59
2022/05/29 10:09:21;;;;;;;12.68;3.58;;;;;;;13.82;100.00;97494.97;4950048;28;20710;-59
2022/05/29 10:11:53;;;;;;;19.77;4.50;;;;;;;15.21;100.00;97490.31;4949934;28;20042;-59
2022/05/29 10:14:24;;;;;;;16.90;3.88;;;;;;;18.54;100.00;97478.78;4951123;28;20037;-61
2022/05/29 10:16:51;;;;;;;16.15;4.05;;;;;;;18.40;100.00;97481.72;4948818;28;20047;-59
2022/05/29 10:19:34;;;;;;;13.60;3.45;;;;;;;18.56;100.00;97476.03;4948600;28;20030;-60
2022/05/29 10:22:02;;;;;;;15.80;3.45;;;;;;;19.67;99.03;97470.25;4947364;28;20057;-60
2022/05/29 10:24:36;;;;;;;17.55;4.05;;;;;;;20.28;90.04;97471.16;4949595;28;20026;-60
2022/05/29 10:27:03;;;;;;;10.55;2.72;;;;;;;20.53;74.41;97465.31;4950218;28;20074;-60
2022/05/29 10:29:36;;;;;;;8.80;2.80;;;;;;;21.20;69.33;97457.47;4948050;28;20054;-59
2022/05/29 10:32:05;;;;;;;11.20;3.10;;;;;;;20.34;73.08;97460.81;4947633;28;20043;-60
2022/05/29 10:34:33;;;;;;;11.38;3.08;;;;;;;21.61;64.69;97438.66;4950281;28;20038;-59
2022/05/29 10:37:01;;;;;;;12.18;3.15;;;;;;;21.36;62.35;97444.44;4949087;28;20044;-60
2022/05/29 10:39:31;;;;;;;11.48;3.05;;;;;;;21.61;57.56;97450.13;4949051;28;20743;-59
2022/05/29 10:41:58;;;;;;;6.85;2.40;;;;;;;21.84;58.50;97445.28;4949082;28;20051;-61
2022/05/29 10:44:51;;;;;;;10.43;3.03;;;;;;;21.77;53.52;97444.19;4948590;28;20057;-57
2022/05/29 10:47:17;;;;;;;10.40;2.42;;;;;;;20.99;54.05;97449.72;4947746;28;20049;-59
2022/05/29 10:50:01;;;;;;;7.60;2.20;;;;;;;21.42;50.50;97434.25;4948308;28;20042;-59
2022/05/29 10:52:44;;;;;;;7.22;2.33;;;;;;;22.44;52.26;97442.16;4949091;28;20981;-60
2022/05/29 10:55:27;;;;;;;9.40;2.72;;;;;;;23.59;52.19;97432.34;4946231;28;20042;-59
2022/05/29 10:58:14;;;;;;;8.27;2.40;;;;;;;21.96;46.20;97435.28;4949922;28;20429;-59
2022/05/29 11:00:58;;;;;;;9.63;2.97;;;;;;;21.79;49.62;97444.03;4949333;28;21397;-60
2022/05/29 11:03:56;;;;;;;13.25;3.33;;;;;;;20.34;51.64;97433.50;4948494;28;20035;-61
2022/05/29 11:06:33;;;;;;;12.65;3.28;;;;;;;18.65;58.77;97444.41;4949532;28;20041;-58
2022/05/29 11:09:28;;;;;;;11.90;2.58;;;;;;;19.04;60.37;97434.16;4948352;28;20114;-58
2022/05/29 11:12:19;;;;;;;10.02;2.50;;;;;;;18.08;63.05;97437.63;4948608;28;20031;-59
2022/05/29 11:15:09;;;;;;;10.45;2.78;;;;;;;18.09;62.02;97432.25;4947946;28;20035;-62
2022/05/29 11:17:43;;;;;;;9.90;2.50;;;;;;;17.98;60.78;97439.38;4948038;28;20043;-58
2022/05/29 11:20:29;;;;;;;11.95;3.15;;;;;;;16.50;61.07;97435.66;4947112;28;20041;-58
2022/05/29 11:23:25;;;;;;;8.32;2.47;;;;;;;17.89;56.86;97430.38;4946359;28;20039;-58
2022/05/29 11:25:59;;;;;;;10.00;2.47;;;;;;;17.39;58.02;97433.38;4950098;28;20517;-58
2022/05/29 11:28:43;;;;;;;15.50;3.50;;;;;;;17.01;60.08;97431.88;4948233;28;20046;-57
2022/05/29 11:31:34;;;;;;;12.70;2.97;;;;;;;16.72;62.97;97432.25;4944232;28;20514;-58
2022/05/29 11:34:31;;;;;;;8.77;2.50;;;;;;;16.88;63.46;97433.78;4949751;28;20039;-57
2022/05/29 11:37:21;;;;;;;10.13;2.65;;;;;;;15.70;84.79;97440.56;4948691;28;20387;-57
2022/05/29 11:40:00;;;;;;;16.67;3.53;;;;;;;14.91;100.00;97435.47;4949881;28;20136;-57
2022/05/29 11:42:27;;;;;;;27.85;4.53;;;;;;;14.54;100.00;97440.53;4950156;28;20134;-58
2022/05/29 11:45:05;;;;;;;17.85;4.05;;;;;;;13.96;100.00;97439.88;4949298;28;20066;-59
2022/05/29 11:53:31;;;;;;;18.05;3.67;;;;;;;14.13;100.00;97446.66;4947024;28;20116;-57
2022/05/29 11:56:01;;;;;;;21.92;3.90;;;;;;;13.44;100.00;97443.16;4946657;28;20051;-58
2022/05/29 11:58:38;;;;;;;27.65;3.83;;;;;;;13.41;100.00;97438.94;4948564;28;20069;-59
2022/05/29 12:01:17;;;;;;;17.38;3.70;;;;;;;13.61;100.00;97434.25;4945680;28;20073;-59
2022/05/29 12:04:06;;;;;;;17.08;3.70;;;;;;;13.73;100.00;97438.72;4947616;28;20039;-61
2022/05/29 12:06:38;;;;;;;15.68;3.55;;;;;;;13.64;100.00;97439.31;4963231;28;20054;-60
2022/05/29 12:09:16;;;;;;;16.63;3.30;;;;;;;13.79;100.00;97448.81;4947790;28;20645;-58
2022/05/29 12:11:41;;;;;;;18.30;3.95;;;;;;;13.73;100.00;97464.06;4947184;28;20059;-60
2022/05/29 12:14:18;;;;;;;19.10;3.97;;;;;;;13.28;100.00;97488.56;4948885;28;20046;-59
2022/05/29 12:16:48;;;;;;;18.50;3.92;;;;;;;13.21;100.00;97500.34;4946337;28;20495;-57
2022/05/29 12:19:19;;;;;;;13.73;3.05;;;;;;;13.83;100.00;97499.28;4947502;28;20019;-59
2022/05/29 12:21:49;;;;;;;11.65;2.80;;;;;;;13.18;100.00;97513.63;4946695;28;20729;-57
2022/05/29 12:24:21;;;;;;;24.20;4.55;;;;;;;12.81;100.00;97517.56;4945221;28;20716;-59